Time;durP1;ratioP1;P1;durP2;ratioP2;P2;SDS_P1;SDS_P2;PMS_P1;PMS_P2;Temp;Humidity;BMP_temperature;BMP_pressure;BME280_temperature;BME280_humidity;BME280_pressure;Samples;Min_cycle;Max_cycle;Signal;HPM_P1;HPM_P2
2021/11/22 00:01:41;;;;;;;2.40;0.03;;;5.10;99.90;;;;;;5006699;28;20029;-79
2021/11/22 00:04:09;;;;;;;1.63;0.00;;;5.10;99.90;;;;;;5030708;28;20025;-79
2021/11/22 00:06:35;;;;;;;3.55;0.25;;;5.00;99.90;;;;;;5043780;28;20096;-80
2021/11/22 00:09:00;;;;;;;4.07;0.00;;;4.90;99.90;;;;;;5044578;28;20128;-79
2021/11/22 00:11:26;;;;;;;0.32;0.00;;;5.00;99.90;;;;;;5024186;28;20021;-79
2021/11/22 00:13:51;;;;;;;4.47;0.00;;;5.00;99.90;;;;;;5021549;28;20515;-79
2021/11/22 00:16:17;;;;;;;2.63;0.00;;;5.00;99.90;;;;;;5023308;28;20018;-79
2021/11/22 00:18:44;;;;;;;2.53;0.00;;;5.00;99.90;;;;;;5022920;28;20067;-79
2021/11/22 00:21:10;;;;;;;2.17;0.00;;;5.00;99.90;;;;;;5041446;28;20496;-79
2021/11/22 00:23:36;;;;;;;3.53;0.00;;;5.00;99.90;;;;;;5040766;28;20432;-79
2021/11/22 00:26:01;;;;;;;3.40;0.20;;;5.00;99.90;;;;;;5023179;28;20018;-79
2021/11/22 00:28:27;;;;;;;1.73;0.00;;;4.90;99.90;;;;;;5024526;28;20029;-79
2021/11/22 00:30:52;;;;;;;3.08;0.00;;;4.90;99.90;;;;;;5021503;28;20048;-79
2021/11/22 00:33:18;;;;;;;0.60;0.00;;;4.90;99.90;;;;;;5022276;28;20068;-79
2021/11/22 00:35:48;;;;;;;0.57;0.00;;;4.90;99.90;;;;;;5038111;28;20021;-79
2021/11/22 00:38:14;;;;;;;5.10;1.02;;;4.90;99.90;;;;;;5023123;28;20036;-79
2021/11/22 00:40:39;;;;;;;2.10;0.00;;;4.90;99.90;;;;;;5023056;28;20393;-78
2021/11/22 00:43:06;;;;;;;1.00;0.00;;;4.90;99.90;;;;;;5021406;28;20018;-78
2021/11/22 00:45:32;;;;;;;1.30;0.00;;;4.80;99.90;;;;;;5041270;28;20026;-79
2021/11/22 00:47:59;;;;;;;2.72;0.00;;;4.80;99.90;;;;;;5022935;28;20021;-78
2021/11/22 00:50:26;;;;;;;3.35;0.00;;;4.80;99.90;;;;;;5019584;28;20036;-78
2021/11/22 00:52:51;;;;;;;1.27;0.05;;;4.80;99.90;;;;;;5021607;28;20032;-78
2021/11/22 00:55:17;;;;;;;1.85;0.00;;;4.80;99.90;;;;;;5022655;28;20033;-78
2021/11/22 00:57:43;;;;;;;2.08;0.38;;;4.80;99.90;;;;;;5021754;28;20079;-78
2021/11/22 01:00:12;;;;;;;1.17;0.10;;;4.80;99.90;;;;;;5020751;28;20115;-78
2021/11/22 01:02:38;;;;;;;;;;;4.80;99.90;;;;;;5022108;28;20118;-78
2021/11/22 01:05:05;;;;;;;1.60;0.30;;;4.80;99.90;;;;;;5021621;28;19905;-78
2021/11/22 01:07:31;;;;;;;0.93;0.00;;;4.80;99.90;;;;;;5018825;28;20076;-78
2021/11/22 01:09:57;;;;;;;2.45;0.00;;;4.80;99.90;;;;;;5039292;28;20475;-79
2021/11/22 01:12:27;;;;;;;3.80;0.00;;;4.80;99.90;;;;;;5021506;28;20037;-79
2021/11/22 01:14:53;;;;;;;0.80;0.20;;;4.80;99.90;;;;;;5023500;28;20029;-79
2021/11/22 01:17:20;;;;;;;0.10;0.00;;;4.70;99.90;;;;;;5022612;28;20551;-79
2021/11/22 01:19:45;;;;;;;0.57;0.10;;;4.80;99.90;;;;;;5039575;28;20490;-79
2021/11/22 01:22:11;;;;;;;3.13;0.13;;;4.80;99.90;;;;;;5021917;28;20017;-80
2021/11/22 01:24:37;;;;;;;0.30;0.00;;;4.80;99.90;;;;;;5039124;28;20017;-78
2021/11/22 01:27:02;;;;;;;2.53;0.00;;;4.80;99.90;;;;;;5020520;28;20017;-78
2021/11/22 01:29:28;;;;;;;0.63;0.00;;;4.80;99.90;;;;;;5037768;28;20025;-79
2021/11/22 01:31:53;;;;;;;1.58;0.38;;;4.80;99.90;;;;;;5019410;28;20474;-78
2021/11/22 01:34:19;;;;;;;3.38;0.03;;;4.80;99.90;;;;;;5020072;28;20097;-79
2021/11/22 01:36:45;;;;;;;3.90;0.10;;;4.70;99.90;;;;;;5020203;28;20025;-79
2021/11/22 01:39:11;;;;;;;3.55;0.52;;;4.60;99.90;;;;;;5018437;28;20061;-78
2021/11/22 01:41:36;;;;;;;2.53;0.00;;;4.50;99.90;;;;;;5017916;28;20014;-78
2021/11/22 01:44:02;;;;;;;2.85;0.00;;;4.50;99.90;;;;;;5035837;28;20525;-78
2021/11/22 01:46:28;;;;;;;7.90;0.80;;;4.40;99.90;;;;;;5017733;28;20053;-78
2021/11/22 01:48:56;;;;;;;4.15;0.10;;;4.30;99.90;;;;;;5035466;28;20104;-78
2021/11/22 01:51:22;;;;;;;1.00;0.40;;;4.30;99.90;;;;;;5035669;28;20053;-78
2021/11/22 01:53:47;;;;;;;2.47;0.00;;;4.20;99.90;;;;;;5035465;28;20279;-77
2021/11/22 01:56:13;;;;;;;0.45;0.00;;;4.20;99.90;;;;;;5035758;28;20036;-78
2021/11/22 01:58:39;;;;;;;2.75;0.20;;;4.10;99.90;;;;;;5036568;28;20055;-79
2021/11/22 02:01:05;;;;;;;3.50;0.00;;;4.10;99.90;;;;;;5037318;28;20108;-79
2021/11/22 02:03:31;;;;;;;5.30;0.00;;;4.00;99.90;;;;;;5035140;28;20013;-77
2021/11/22 02:05:56;;;;;;;5.18;0.00;;;4.00;99.90;;;;;;5015819;28;20033;-78
2021/11/22 02:08:22;;;;;;;2.78;0.10;;;4.00;99.90;;;;;;4998356;28;20025;-78
2021/11/22 02:10:49;;;;;;;0.25;0.25;;;3.90;99.90;;;;;;4997907;28;20022;-78
2021/11/22 02:13:15;;;;;;;0.55;0.00;;;3.90;99.90;;;;;;5015046;28;20026;-77
2021/11/22 02:15:41;;;;;;;0.35;0.00;;;3.80;99.90;;;;;;5015735;28;20029;-77
2021/11/22 02:18:07;;;;;;;1.45;0.00;;;3.80;99.90;;;;;;5015563;28;20034;-77
2021/11/22 02:20:34;;;;;;;2.28;0.00;;;5.70;99.90;;;;;;4998392;28;20024;-77
2021/11/22 02:23:06;;;;;;;1.25;0.47;;;3.70;99.90;;;;;;4997802;28;20057;-78
2021/11/22 02:25:33;;;;;;;1.55;0.03;;;3.60;99.90;;;;;;5015888;28;20014;-78
2021/11/22 02:28:00;;;;;;;1.67;0.00;;;3.60;99.90;;;;;;4998096;28;20195;-78
2021/11/22 02:30:31;;;;;;;0.75;0.00;;;3.60;99.90;;;;;;5015578;28;20394;-78
2021/11/22 02:32:59;;;;;;;0.00;0.00;;;3.60;99.90;;;;;;4997575;28;20066;-78
2021/11/22 02:35:26;;;;;;;1.08;0.00;;;3.50;99.90;;;;;;5015635;28;20026;-78
2021/11/22 02:37:53;;;;;;;1.92;0.00;;;3.50;99.90;;;;;;5015082;28;20053;-78
2021/11/22 02:40:19;;;;;;;0.30;0.00;;;3.50;99.90;;;;;;4998062;28;20518;-78
2021/11/22 02:42:45;;;;;;;4.40;0.52;;;3.50;99.90;;;;;;4997950;28;20045;-78
2021/11/22 02:45:17;;;;;;;4.88;0.00;;;3.40;99.90;;;;;;4997643;28;20033;-78
2021/11/22 02:47:44;;;;;;;0.55;0.00;;;3.50;99.90;;;;;;4997698;28;20018;-77
2021/11/22 02:50:11;;;;;;;3.20;0.35;;;3.50;99.90;;;;;;4997496;28;20025;-78
2021/11/22 02:52:38;;;;;;;4.30;0.20;;;3.40;99.90;;;;;;4997184;28;20018;-78
2021/11/22 02:55:07;;;;;;;2.95;0.00;;;3.50;99.90;;;;;;4997589;28;20063;-78
2021/11/22 02:57:32;;;;;;;0.38;0.00;;;3.40;99.90;;;;;;4997500;28;20022;-78
2021/11/22 02:59:58;;;;;;;2.53;0.00;;;3.40;99.90;;;;;;4997623;28;20044;-78
2021/11/22 03:02:23;;;;;;;0.68;0.20;;;3.50;99.90;;;;;;4997567;28;20080;-78
2021/11/22 03:04:49;;;;;;;4.45;0.00;;;3.50;99.90;;;;;;4997387;28;20022;-78
2021/11/22 03:07:15;;;;;;;1.20;0.00;;;3.40;99.90;;;;;;5015322;28;20046;-78
2021/11/22 03:09:40;;;;;;;2.13;0.13;;;3.40;99.90;;;;;;5015106;28;20583;-78
2021/11/22 03:12:09;;;;;;;0.80;0.20;;;3.40;99.90;;;;;;4996907;28;20048;-78
2021/11/22 03:14:36;;;;;;;1.35;0.00;;;3.40;99.90;;;;;;5014700;28;20021;-79
2021/11/22 03:17:02;;;;;;;0.60;0.00;;;3.40;99.90;;;;;;5014854;28;20026;-78
2021/11/22 03:19:28;;;;;;;5.80;0.03;;;3.40;99.90;;;;;;5014918;28;20029;-78
2021/11/22 03:21:54;;;;;;;0.88;0.00;;;3.50;99.90;;;;;;5014833;28;20026;-77
2021/11/22 03:24:19;;;;;;;6.53;0.00;;;3.50;99.90;;;;;;4996968;28;20065;-77
2021/11/22 03:26:45;;;;;;;2.63;0.00;;;3.50;99.90;;;;;;4996972;28;20497;-77
2021/11/22 03:29:11;;;;;;;0.40;0.03;;;3.50;99.90;;;;;;4996965;28;20358;-77
2021/11/22 03:31:38;;;;;;;3.15;0.00;;;3.50;99.90;;;;;;5002964;28;20025;-77
2021/11/22 03:34:06;;;;;;;1.05;0.00;;;3.40;99.90;;;;;;5016093;28;20029;-77
2021/11/22 03:36:33;;;;;;;2.30;0.40;;;3.40;99.90;;;;;;5034038;28;20026;-78
2021/11/22 03:39:00;;;;;;;1.65;0.00;;;3.40;99.90;;;;;;5033897;28;20437;-78
2021/11/22 03:41:27;;;;;;;2.20;0.00;;;3.50;99.90;;;;;;5016538;28;20048;-77
2021/11/22 03:44:10;;;;;;;0.45;0.00;;;3.40;99.90;;;;;;5034135;28;20097;-77
2021/11/22 03:46:38;;;;;;;4.43;0.10;;;3.40;99.90;;;;;;5034538;28;20018;-77
2021/11/22 03:49:04;;;;;;;1.38;0.00;;;3.40;99.90;;;;;;5033769;28;20029;-78
2021/11/22 03:51:29;;;;;;;2.75;0.00;;;3.40;99.90;;;;;;5033935;28;20034;-78
2021/11/22 03:53:55;;;;;;;1.23;0.00;;;3.40;99.90;;;;;;5033548;28;20116;-78
2021/11/22 03:56:21;;;;;;;10.18;0.00;;;3.40;99.90;;;;;;5016361;28;20022;-78
2021/11/22 03:58:47;;;;;;;0.52;0.22;;;3.30;99.90;;;;;;5016118;28;20025;-77
2021/11/22 04:01:12;;;;;;;0.20;0.00;;;3.30;99.90;;;;;;5034003;28;20025;-78
2021/11/22 04:03:38;;;;;;;1.92;0.00;;;3.30;99.90;;;;;;5015948;28;20009;-79
2021/11/22 04:06:06;;;;;;;3.05;0.00;;;3.30;99.90;;;;;;5033786;28;20054;-78
2021/11/22 04:08:32;;;;;;;4.38;0.40;;;3.30;99.90;;;;;;5016440;28;20402;-79
2021/11/22 04:10:58;;;;;;;1.35;0.00;;;3.20;99.90;;;;;;5033812;28;20030;-79
2021/11/22 04:13:23;;;;;;;2.88;0.10;;;3.20;99.90;;;;;;5033731;28;20038;-79
2021/11/22 04:15:49;;;;;;;0.40;0.00;;;3.10;99.90;;;;;;5034361;28;20025;-78
2021/11/22 04:18:15;;;;;;;1.08;0.40;;;3.10;99.90;;;;;;5016276;28;20021;-78
2021/11/22 04:20:41;;;;;;;0.85;0.00;;;3.00;99.90;;;;;;5016111;28;20495;-78
2021/11/22 04:23:08;;;;;;;2.13;0.00;;;3.00;99.90;;;;;;5034399;28;20470;-77
2021/11/22 04:25:34;;;;;;;2.50;0.00;;;3.00;99.90;;;;;;5034275;28;20021;-77
2021/11/22 04:28:00;;;;;;;2.60;0.00;;;3.00;99.90;;;;;;5015231;28;20065;-78
2021/11/22 04:30:25;;;;;;;5.95;0.00;;;2.90;99.90;;;;;;5016168;28;20021;-77
2021/11/22 04:32:51;;;;;;;8.63;0.57;;;2.90;99.90;;;;;;5016331;28;20033;-78
2021/11/22 04:35:18;;;;;;;3.80;0.00;;;2.90;99.90;;;;;;5016137;28;20100;-78
2021/11/22 04:37:44;;;;;;;3.10;0.20;;;2.80;99.90;;;;;;5018788;28;20021;-79
2021/11/22 04:40:14;;;;;;;2.08;0.00;;;2.80;99.90;;;;;;5019914;28;20032;-79
2021/11/22 04:42:40;;;;;;;2.97;0.00;;;2.70;99.90;;;;;;5019688;28;20486;-79
2021/11/22 04:45:06;;;;;;;2.53;0.08;;;2.60;99.90;;;;;;5037520;28;20017;-79
2021/11/22 04:47:34;;;;;;;3.53;0.10;;;2.60;99.90;;;;;;5003734;28;20029;-79
2021/11/22 04:50:00;;;;;;;1.75;0.10;;;2.60;99.90;;;;;;4999809;28;20422;-79
2021/11/22 04:52:25;;;;;;;2.40;0.00;;;2.50;99.90;;;;;;5017380;28;20442;-79
2021/11/22 04:54:51;;;;;;;3.42;0.00;;;2.50;99.90;;;;;;4999670;28;20017;-78
2021/11/22 04:57:17;;;;;;;1.20;0.00;;;2.50;99.90;;;;;;4999979;28;20030;-79
2021/11/22 04:59:43;;;;;;;0.10;0.00;;;2.50;99.90;;;;;;5018007;28;20040;-79
2021/11/22 05:02:09;;;;;;;0.57;0.00;;;2.40;99.90;;;;;;5018553;28;20117;-79
2021/11/22 05:04:38;;;;;;;3.80;0.00;;;2.40;99.90;;;;;;5036827;28;20021;-79
2021/11/22 05:07:04;;;;;;;2.10;0.00;;;2.40;99.90;;;;;;5000060;22;20050;-77
2021/11/22 05:09:30;;;;;;;2.08;0.00;;;2.40;99.90;;;;;;4978143;28;20053;-77
2021/11/22 05:11:56;;;;;;;2.92;0.00;;;2.30;99.90;;;;;;4961177;28;20019;-77
2021/11/22 05:14:23;;;;;;;0.63;0.00;;;2.30;99.90;;;;;;4960575;28;20038;-77
2021/11/22 05:16:48;;;;;;;2.00;0.00;;;2.30;99.90;;;;;;4960475;28;20495;-77
2021/11/22 05:19:14;;;;;;;0.55;0.00;;;2.20;99.90;;;;;;4952880;29;20019;-77
2021/11/22 05:21:40;;;;;;;2.47;0.10;;;2.20;99.90;;;;;;4941064;29;20148;-77
2021/11/22 05:24:06;;;;;;;3.10;0.00;;;2.10;99.90;;;;;;4940911;29;20066;-78
2021/11/22 05:26:33;;;;;;;2.72;0.00;;;2.10;99.90;;;;;;4958356;29;20043;-78
2021/11/22 05:28:59;;;;;;;2.38;0.00;;;2.10;99.90;;;;;;4941116;29;20472;-77
2021/11/22 05:31:25;;;;;;;1.40;0.00;;;2.00;99.90;;;;;;4958118;29;20030;-77
2021/11/22 05:33:51;;;;;;;2.33;0.00;;;2.00;99.90;;;;;;4940628;29;20023;-77
2021/11/22 05:36:17;;;;;;;3.92;0.47;;;2.00;99.90;;;;;;4955164;28;20041;-77
2021/11/22 05:38:43;;;;;;;1.98;0.00;;;2.00;99.90;;;;;;4959241;28;20077;-77
2021/11/22 05:41:09;;;;;;;0.40;0.00;;;1.90;99.90;;;;;;4959811;28;20030;-77
2021/11/22 05:43:36;;;;;;;1.55;0.00;;;1.90;99.90;;;;;;4977902;28;20429;-77
2021/11/22 05:46:03;;;;;;;4.13;0.10;;;1.90;99.90;;;;;;4977275;28;20479;-77
2021/11/22 05:48:28;;;;;;;0.85;0.00;;;1.90;99.90;;;;;;4976308;28;20023;-77
2021/11/22 05:50:56;;;;;;;1.77;0.20;;;1.80;99.90;;;;;;4977231;28;20037;-77
2021/11/22 05:53:22;;;;;;;1.58;0.00;;;1.80;99.90;;;;;;4977476;28;20027;-77
2021/11/22 05:55:51;;;;;;;0.57;0.00;;;1.80;99.90;;;;;;4959626;28;20037;-77
2021/11/22 05:58:18;;;;;;;2.92;0.00;;;1.80;99.90;;;;;;4976714;28;20026;-77
2021/11/22 06:00:43;;;;;;;0.35;0.00;;;1.80;99.90;;;;;;4958745;28;20018;-77
2021/11/22 06:03:09;;;;;;;0.80;0.00;;;1.70;99.90;;;;;;4957301;29;20515;-78
2021/11/22 06:05:35;;;;;;;0.63;0.00;;;1.70;99.90;;;;;;4974553;28;20033;-77
2021/11/22 06:08:01;;;;;;;0.10;0.00;;;1.70;99.90;;;;;;4959704;28;20031;-76
2021/11/22 06:10:27;;;;;;;3.63;0.00;;;1.70;99.90;;;;;;4976424;28;20027;-76
2021/11/22 06:12:53;;;;;;;2.10;0.00;;;1.60;99.90;;;;;;4958779;28;20035;-76
2021/11/22 06:15:19;;;;;;;1.33;0.20;;;1.60;99.90;;;;;;4959338;28;20035;-76
2021/11/22 06:17:45;;;;;;;2.25;0.10;;;1.50;99.90;;;;;;4959803;28;20391;-78
2021/11/22 06:20:11;;;;;;;2.95;0.00;;;1.50;99.90;;;;;;4959340;28;20019;-78
2021/11/22 06:22:37;;;;;;;2.03;0.10;;;1.50;99.90;;;;;;4959375;28;20471;-76
2021/11/22 06:25:04;;;;;;;0.10;0.00;;;1.40;99.90;;;;;;4976711;28;20046;-78
2021/11/22 06:27:29;;;;;;;2.05;0.10;;;1.40;99.90;;;;;;4960066;28;20067;-78
2021/11/22 06:29:55;;;;;;;0.17;0.10;;;1.30;99.90;;;;;;4960093;28;20476;-77
2021/11/22 06:32:25;;;;;;;3.53;0.00;;;1.30;99.90;;;;;;4959145;28;20081;-77
2021/11/22 06:34:51;;;;;;;1.00;0.00;;;1.30;99.90;;;;;;4976527;28;20364;-79
2021/11/22 06:37:17;;;;;;;0.63;0.00;;;1.20;99.90;;;;;;4976451;28;20050;-76
2021/11/22 06:39:42;;;;;;;0.38;0.00;;;1.20;99.90;;;;;;4975833;28;20062;-74
2021/11/22 06:42:11;;;;;;;0.70;0.10;;;1.20;99.90;;;;;;4975880;28;20031;-73
2021/11/22 06:44:36;;;;;;;0.98;0.00;;;1.10;99.90;;;;;;4975823;28;20022;-74
2021/11/22 06:47:03;;;;;;;2.22;0.00;;;1.10;99.90;;;;;;4975539;28;20357;-72
2021/11/22 06:49:28;;;;;;;0.45;0.03;;;1.10;99.90;;;;;;4975410;28;20510;-73
2021/11/22 06:51:54;;;;;;;3.85;0.00;;;1.10;99.90;;;;;;4971305;28;20027;-74
2021/11/22 06:54:20;;;;;;;1.48;0.00;;;1.10;99.90;;;;;;4963459;28;20042;-74
2021/11/22 06:56:46;;;;;;;4.10;0.10;;;1.00;99.90;;;;;;4976304;28;20518;-75
2021/11/22 06:59:12;;;;;;;2.80;0.00;;;1.00;99.90;;;;;;4958718;28;20027;-75
2021/11/22 07:01:37;;;;;;;0.08;0.08;;;1.00;99.90;;;;;;4975856;28;20476;-75
2021/11/22 07:04:03;;;;;;;3.67;0.57;;;0.90;99.90;;;;;;4958570;28;20029;-73
2021/11/22 07:06:28;;;;;;;1.00;0.00;;;0.90;99.90;;;;;;4976132;28;20121;-73
2021/11/22 07:08:54;;;;;;;2.25;0.00;;;0.90;99.90;;;;;;4975977;28;20027;-74
2021/11/22 07:11:20;;;;;;;1.35;0.00;;;0.80;99.90;;;;;;4975728;28;20035;-74
2021/11/22 07:13:45;;;;;;;4.18;0.00;;;0.90;99.90;;;;;;4975755;28;20023;-74
2021/11/22 07:16:14;;;;;;;4.30;0.00;;;0.80;99.90;;;;;;4975730;28;20034;-75
2021/11/22 07:18:39;;;;;;;0.30;0.00;;;0.90;99.90;;;;;;4975742;28;20475;-75
2021/11/22 07:21:05;;;;;;;0.65;0.00;;;0.80;99.90;;;;;;4975819;28;20054;-75
2021/11/22 07:23:34;;;;;;;2.35;0.00;;;0.80;99.90;;;;;;4975572;28;20015;-75
2021/11/22 07:26:00;;;;;;;1.83;0.00;;;0.80;99.90;;;;;;4975597;28;20537;-75
2021/11/22 07:28:26;;;;;;;0.47;0.00;;;0.80;99.90;;;;;;4975408;28;20030;-75
2021/11/22 07:30:53;;;;;;;0.43;0.00;;;0.80;99.90;;;;;;4975506;28;20035;-74
2021/11/22 07:33:19;;;;;;;1.00;0.00;;;0.80;99.90;;;;;;4975922;28;20070;-75
2021/11/22 07:35:45;;;;;;;7.20;0.00;;;0.80;99.90;;;;;;4975963;28;20103;-75
2021/11/22 07:38:11;;;;;;;0.20;0.00;;;0.80;99.90;;;;;;4975679;28;20503;-75
2021/11/22 07:40:37;;;;;;;0.68;0.43;;;0.80;99.90;;;;;;4975714;28;20106;-72
2021/11/22 07:43:04;;;;;;;3.42;0.35;;;0.90;99.90;;;;;;4975286;28;20361;-73
2021/11/22 07:45:29;;;;;;;1.02;0.00;;;0.90;99.90;;;;;;4958064;28;20030;-73
2021/11/22 07:47:55;;;;;;;2.10;0.00;;;0.90;99.90;;;;;;4975101;28;20023;-75
2021/11/22 07:50:24;;;;;;;0.68;0.00;;;0.90;99.90;;;;;;4957887;28;20018;-74
2021/11/22 07:52:50;;;;;;;;;;;1.00;99.90;;;;;;4975917;28;20038;-74
2021/11/22 07:55:17;;;;;;;2.88;0.40;;;1.00;99.90;;;;;;4975114;28;19906;-75
2021/11/22 07:57:43;;;;;;;1.77;0.00;;;1.10;99.90;;;;;;4977669;28;20026;-74
2021/11/22 08:00:11;;;;;;;16.73;1.95;;;1.20;99.90;;;;;;4957546;28;20090;-76
2021/11/22 08:02:37;;;;;;;4.93;0.43;;;1.30;99.90;;;;;;4986825;28;20072;-76
2021/11/22 08:05:04;;;;;;;8.23;0.28;;;1.40;99.90;;;;;;4975645;28;20018;-76
2021/11/22 08:07:31;;;;;;;3.15;0.00;;;1.40;99.90;;;;;;4993943;28;20491;-77
2021/11/22 08:09:58;;;;;;;2.60;0.30;;;1.50;99.90;;;;;;4976472;28;20387;-76
2021/11/22 08:12:26;;;;;;;1.23;0.20;;;1.50;99.90;;;;;;4979598;28;20022;-75
2021/11/22 08:14:53;;;;;;;3.42;0.00;;;1.60;99.90;;;;;;4980584;28;20026;-75
2021/11/22 08:17:19;;;;;;;0.95;0.00;;;1.60;99.90;;;;;;4998169;28;20050;-75
2021/11/22 08:19:45;;;;;;;2.65;0.00;;;1.70;99.90;;;;;;4998240;28;20069;-76
2021/11/22 08:22:11;;;;;;;2.00;0.00;;;1.80;99.90;;;;;;4998209;28;20022;-75
2021/11/22 08:24:37;;;;;;;2.08;0.25;;;2.00;99.90;;;;;;4998063;28;20429;-76
2021/11/22 08:27:03;;;;;;;3.20;0.30;;;2.00;99.90;;;;;;4997861;28;20029;-76
2021/11/22 08:29:29;;;;;;;3.15;0.22;;;2.20;99.90;;;;;;4980403;28;20030;-76
2021/11/22 08:31:54;;;;;;;1.58;0.08;;;2.30;99.90;;;;;;4980107;28;20054;-76
2021/11/22 08:34:20;;;;;;;2.70;0.38;;;2.40;99.90;;;;;;4980546;28;20450;-75
2021/11/22 08:36:46;;;;;;;2.42;0.20;;;2.50;99.90;;;;;;4998054;28;20046;-75
2021/11/22 08:39:12;;;;;;;7.60;0.55;;;2.60;99.90;;;;;;4997616;28;20026;-76
2021/11/22 08:41:38;;;;;;;8.98;0.80;;;2.70;99.90;;;;;;4997688;28;20034;-75
2021/11/22 08:44:04;;;;;;;1.50;0.00;;;2.90;99.90;;;;;;4980225;28;20376;-75
2021/11/22 08:46:30;;;;;;;3.13;0.10;;;3.00;99.90;;;;;;4980087;28;20105;-75
2021/11/22 08:48:55;;;;;;;1.23;0.28;;;3.20;99.90;;;;;;4997617;28;20387;-75
2021/11/22 08:51:21;;;;;;;4.57;0.50;;;3.30;99.90;;;;;;4979931;28;20121;-75
2021/11/22 08:53:47;;;;;;;1.75;0.17;;;3.40;99.90;;;;;;4979722;28;20026;-75
2021/11/22 08:56:13;;;;;;;2.55;0.10;;;3.40;99.90;;;;;;4981958;28;20364;-77
2021/11/22 08:58:38;;;;;;;1.15;0.47;;;3.60;99.90;;;;;;4983998;28;20034;-77
2021/11/22 09:01:04;;;;;;;2.15;0.00;;;3.70;99.90;;;;;;4983072;28;20022;-77
2021/11/22 09:03:31;;;;;;;0.50;0.00;;;3.80;99.90;;;;;;4983648;28;20023;-77
2021/11/22 09:05:56;;;;;;;1.30;0.00;;;3.90;99.90;;;;;;4982835;28;20030;-78
2021/11/22 09:08:23;;;;;;;1.83;0.10;;;4.00;99.90;;;;;;4982315;28;20442;-78
2021/11/22 09:10:48;;;;;;;2.45;0.08;;;4.10;99.90;;;;;;4982482;28;20037;-77
2021/11/22 09:13:15;;;;;;;2.35;0.45;;;4.20;99.90;;;;;;4999242;28;20022;-77
2021/11/22 09:15:42;;;;;;;0.68;0.10;;;4.30;99.90;;;;;;4981043;28;20487;-77
2021/11/22 09:18:08;;;;;;;0.15;0.05;;;4.40;99.90;;;;;;4980550;28;20027;-78
2021/11/22 09:20:34;;;;;;;8.45;0.35;;;4.50;99.90;;;;;;4982251;28;20031;-78
2021/11/22 09:23:01;;;;;;;5.72;0.00;;;4.60;99.90;;;;;;5002300;28;20435;-79
2021/11/22 09:25:28;;;;;;;1.55;0.30;;;4.70;99.90;;;;;;5004600;28;20018;-78
2021/11/22 09:27:56;;;;;;;0.80;0.00;;;4.90;99.90;;;;;;5003240;28;20479;-78
2021/11/22 09:30:21;;;;;;;1.40;0.00;;;5.00;99.90;;;;;;4985603;28;20036;-79
2021/11/22 09:32:47;;;;;;;0.85;0.00;;;5.10;99.90;;;;;;5003487;28;20074;-78
2021/11/22 09:35:13;;;;;;;3.05;0.10;;;5.20;99.90;;;;;;4985913;28;20046;-78
2021/11/22 09:37:39;;;;;;;3.47;0.10;;;5.40;99.90;;;;;;4986436;28;20029;-79
2021/11/22 09:40:07;;;;;;;2.63;0.00;;;5.50;99.90;;;;;;5002557;28;20022;-78
2021/11/22 09:42:33;;;;;;;6.22;0.00;;;5.60;99.90;;;;;;4983373;28;20487;-78
2021/11/22 09:45:00;;;;;;;1.90;0.00;;;5.70;99.90;;;;;;4979886;28;20058;-77
2021/11/22 09:47:28;;;;;;;2.22;0.32;;;5.80;99.90;;;;;;4979299;28;20030;-78
2021/11/22 09:49:54;;;;;;;1.15;0.38;;;5.90;99.90;;;;;;4979685;28;20022;-78
2021/11/22 09:52:25;;;;;;;3.25;0.08;;;6.10;99.90;;;;;;4979422;28;20037;-77
2021/11/22 09:54:51;;;;;;;5.15;0.80;;;6.20;99.90;;;;;;4996530;28;20026;-77
2021/11/22 09:57:18;;;;;;;4.82;0.05;;;6.30;99.90;;;;;;4979054;28;20022;-77
2021/11/22 09:59:45;;;;;;;1.30;0.08;;;6.30;99.90;;;;;;4979115;28;20169;-77
2021/11/22 10:02:11;;;;;;;6.70;0.32;;;6.40;99.90;;;;;;4979611;28;20018;-78
2021/11/22 10:04:37;;;;;;;3.92;0.00;;;6.50;99.90;;;;;;4998738;28;20117;-77
2021/11/22 10:07:10;;;;;;;6.47;0.45;;;6.60;99.90;;;;;;4979693;28;20022;-78
2021/11/22 10:09:40;;;;;;;1.60;0.10;;;6.60;99.90;;;;;;4996875;28;20493;-77
2021/11/22 10:12:17;;;;;;;3.40;0.47;;;6.70;99.90;;;;;;4979066;28;20068;-78
2021/11/22 10:14:50;;;;;;;0.95;0.05;;;6.80;99.90;;;;;;4996557;28;20533;-78
2021/11/22 10:17:19;;;;;;;1.42;0.00;;;6.90;99.90;;;;;;4979101;28;20022;-77
2021/11/22 10:19:44;;;;;;;1.38;0.10;;;7.00;99.90;;;;;;4996649;28;20123;-77
2021/11/22 10:22:19;;;;;;;1.05;0.00;;;8.10;99.90;;;;;;4978978;28;20050;-77
2021/11/22 10:24:45;;;;;;;3.38;0.00;;;7.10;99.90;;;;;;4979146;28;20026;-77
2021/11/22 10:27:11;;;;;;;2.25;0.30;;;7.20;99.90;;;;;;4978805;28;20030;-78
2021/11/22 10:29:36;;;;;;;7.60;0.47;;;7.30;99.90;;;;;;4996528;28;20394;-78
2021/11/22 10:32:05;;;;;;;9.40;1.50;;;7.40;99.90;;;;;;4978613;28;20030;-77
2021/11/22 10:34:35;;;;;;;21.77;2.35;;;7.40;99.90;;;;;;4995936;28;20536;-77
2021/11/22 10:37:08;;;;;;;6.32;0.30;;;7.30;99.90;;;;;;4978777;28;20023;-77
2021/11/22 10:39:34;;;;;;;3.78;0.17;;;7.40;99.90;;;;;;4978906;28;20096;-77
2021/11/22 10:42:01;;;;;;;3.05;0.05;;;7.40;99.90;;;;;;4996784;28;20376;-78
2021/11/22 10:44:32;;;;;;;0.08;0.00;;;7.50;99.90;;;;;;4995931;28;20023;-77
2021/11/22 10:47:14;;;;;;;1.17;0.00;;;7.50;99.90;;;;;;4978820;28;20022;-77
2021/11/22 10:49:43;;;;;;;0.00;0.00;;;7.50;99.90;;;;;;4996651;28;20100;-77
2021/11/22 10:52:12;;;;;;;0.77;0.00;;;7.60;99.90;;;;;;4996282;28;20026;-79
2021/11/22 10:55:02;;;;;;;0.13;0.00;;;7.70;99.90;;;;;;4996277;28;20145;-77
2021/11/22 10:57:42;;;;;;;1.75;0.00;;;7.80;99.90;;;;;;4995887;28;20526;-77
2021/11/22 11:00:29;;;;;;;1.60;0.00;;;7.90;99.90;;;;;;4995946;28;20472;-77
2021/11/22 11:02:57;;;;;;;2.30;0.00;;;7.90;99.90;;;;;;4978307;28;20029;-77
2021/11/22 11:05:35;;;;;;;3.40;0.00;;;7.90;99.90;;;;;;4978407;28;20212;-77
2021/11/22 11:08:12;;;;;;;0.10;0.00;;;8.00;99.90;;;;;;4995779;28;20026;-79
2021/11/22 11:10:39;;;;;;;0.75;0.00;;;8.00;99.90;;;;;;4996031;28;20084;-78
2021/11/22 11:13:05;;;;;;;2.60;0.00;;;8.20;99.90;;;;;;4995875;28;20618;-78
2021/11/22 11:15:33;;;;;;;1.70;0.15;;;8.20;99.90;;;;;;4996486;28;20050;-77
2021/11/22 11:18:01;;;;;;;4.07;0.00;;;8.30;99.90;;;;;;4995522;28;20033;-77
2021/11/22 11:20:31;;;;;;;0.50;0.00;;;8.30;99.90;;;;;;4995413;28;20391;-78
2021/11/22 11:22:58;;;;;;;2.72;0.00;;;8.40;99.90;;;;;;4995903;28;20022;-78
2021/11/22 11:25:26;;;;;;;0.95;0.05;;;8.40;99.90;;;;;;4996190;28;20023;-78
2021/11/22 11:27:52;;;;;;;1.98;0.30;;;8.50;99.90;;;;;;4995839;28;20023;-77
2021/11/22 11:30:20;;;;;;;0.57;0.15;;;8.60;99.90;;;;;;4978224;28;20019;-79
2021/11/22 11:32:47;;;;;;;1.60;0.00;;;8.60;99.90;;;;;;4995818;28;20029;-78
2021/11/22 11:35:18;;;;;;;1.55;0.00;;;8.70;99.90;;;;;;4977569;28;20022;-79
2021/11/22 11:37:49;;;;;;;1.33;0.00;;;8.70;99.90;;;;;;4995571;28;20026;-78
2021/11/22 11:40:26;;;;;;;1.75;0.00;;;8.80;99.90;;;;;;4977522;28;20513;-79
2021/11/22 11:43:20;;;;;;;1.20;0.00;;;8.80;99.90;;;;;;4995779;28;20394;-79
2021/11/22 11:45:49;;;;;;;0.55;0.00;;;8.90;99.90;;;;;;4995852;28;20080;-78
2021/11/22 11:48:40;;;;;;;1.33;0.00;;;9.00;99.90;;;;;;4982480;28;20050;-78
2021/11/22 11:51:06;;;;;;;1.33;0.03;;;9.10;99.90;;;;;;4981737;28;20022;-78
2021/11/22 11:53:33;;;;;;;0.20;0.00;;;9.10;99.90;;;;;;4981537;28;20053;-78
2021/11/22 11:56:12;;;;;;;1.00;0.00;;;9.20;99.90;;;;;;4999482;28;20094;-78
2021/11/22 11:58:40;;;;;;;0.47;0.00;;;9.30;99.90;;;;;;4982226;28;20027;-79
2021/11/22 12:01:15;;;;;;;0.50;0.00;;;9.30;99.90;;;;;;4999913;28;20501;-79
2021/11/22 12:04:11;;;;;;;0.10;0.00;;;9.50;99.90;;;;;;4999622;28;20030;-78
2021/11/22 12:06:45;;;;;;;2.47;0.00;;;9.50;99.90;;;;;;4981313;28;20045;-79
2021/11/22 12:09:33;;;;;;;0.00;0.00;;;9.60;99.90;;;;;;4981986;28;20030;-78
2021/11/22 12:12:08;;;;;;;1.35;0.00;;;9.60;99.90;;;;;;4981758;28;20034;-78
2021/11/22 12:14:55;;;;;;;0.52;0.00;;;9.60;97.50;;;;;;4982071;28;20035;-78
2021/11/22 12:17:39;;;;;;;0.00;0.00;;;9.70;99.90;;;;;;4999767;28;20038;-78
2021/11/22 12:20:33;;;;;;;0.75;0.00;;;9.70;99.10;;;;;;4981603;28;20022;-78
2021/11/22 12:23:01;;;;;;;1.35;0.00;;;9.60;98.70;;;;;;4998976;28;20510;-77
2021/11/22 12:25:39;;;;;;;0.65;0.00;;;9.80;96.90;;;;;;4981476;28;20076;-77
2021/11/22 12:28:11;;;;;;;0.00;0.00;;;10.00;96.40;;;;;;4981466;28;20024;-78
2021/11/22 12:30:40;;;;;;;2.63;0.00;;;10.00;96.70;;;;;;4981077;28;20046;-77
2021/11/22 12:33:20;;;;;;;0.00;0.00;;;10.20;97.40;;;;;;4998932;28;20031;-77
2021/11/22 12:35:56;;;;;;;2.20;0.28;;;10.20;98.50;;;;;;4981888;28;20023;-76
2021/11/22 12:38:47;;;;;;;3.40;0.20;;;10.40;98.60;;;;;;4998462;28;20364;-77
2021/11/22 12:41:24;;;;;;;0.25;0.00;;;10.50;96.60;;;;;;4972612;28;20030;-78
2021/11/22 12:43:55;;;;;;;0.10;0.00;;;10.60;97.30;;;;;;4999256;28;20030;-78
2021/11/22 12:46:57;;;;;;;1.60;0.15;;;10.70;97.70;;;;;;4998662;28;20058;-78
2021/11/22 12:49:36;;;;;;;0.00;0.00;;;10.70;96.20;;;;;;4998688;28;20166;-78
2021/11/22 12:52:15;;;;;;;3.22;0.00;;;10.60;97.00;;;;;;4997877;28;20125;-77
2021/11/22 12:54:56;;;;;;;2.70;0.10;;;10.60;96.90;;;;;;4981340;28;20034;-78
2021/11/22 12:57:27;;;;;;;1.38;0.00;;;10.60;94.80;;;;;;4980341;28;20038;-76
2021/11/22 13:00:13;;;;;;;1.02;0.00;;;10.70;94.80;;;;;;4981225;28;20034;-77
2021/11/22 13:03:01;;;;;;;0.70;0.00;;;10.80;92.70;;;;;;4999018;28;20052;-78